Time;durP1;ratioP1;P1;durP2;ratioP2;P2;SDS_P1;SDS_P2;PMS_P1;PMS_P2;Temp;Humidity;BMP_temperature;BMP_pressure;BME280_temperature;BME280_humidity;BME280_pressure;Samples;Min_cycle;Max_cycle;Signal;HPM_P1;HPM_P2
2021/11/01 00:00:44;;;;;;;133.10;97.90;;;;;;;2.91;87.11;98393.48;112577;1193;64623;-77
2021/11/01 00:03:13;;;;;;;125.00;94.20;;;;;;;2.90;87.14;98390.58;112454;1192;61119;-78
2021/11/01 00:05:40;;;;;;;120.60;92.70;;;;;;;2.88;87.01;98385.91;112498;1192;62864;-79
2021/11/01 00:08:07;;;;;;;117.70;89.60;;;;;;;2.85;86.81;98381.84;112543;1193;60978;-79
2021/11/01 00:10:34;;;;;;;118.70;88.70;;;;;;;2.80;86.68;98379.75;112529;1193;61048;-79
2021/11/01 00:13:01;;;;;;;125.60;94.00;;;;;;;2.73;86.82;98380.78;112497;1193;66086;-77
2021/11/01 00:15:28;;;;;;;118.70;89.20;;;;;;;2.67;87.11;98378.82;112491;1192;61007;-77
2021/11/01 00:17:54;;;;;;;125.40;91.30;;;;;;;2.64;87.34;98372.08;112507;1192;64089;-77
2021/11/01 00:20:22;;;;;;;120.50;88.70;;;;;;;2.64;87.55;98371.90;112504;1193;61023;-77
2021/11/01 00:22:50;;;;;;;126.10;91.90;;;;;;;2.65;87.58;98366.77;112405;1192;61135;-78
2021/11/01 00:25:16;;;;;;;124.60;88.40;;;;;;;2.64;87.47;98358.40;112540;1192;65951;-78
2021/11/01 00:27:44;;;;;;;122.40;88.10;;;;;;;2.64;87.45;98358.22;112540;1192;61020;-78
2021/11/01 00:30:11;;;;;;;122.10;89.20;;;;;;;2.62;87.41;98361.46;112364;1193;64055;-79
2021/11/01 00:32:38;;;;;;;118.90;87.70;;;;;;;2.59;87.54;98359.65;112176;1183;60958;-77
2021/11/01 00:35:06;;;;;;;113.90;86.50;;;;;;;2.59;87.60;98357.77;112521;1191;61010;-77
2021/11/01 00:37:33;;;;;;;110.90;80.90;;;;;;;2.60;87.68;98355.08;112520;1192;64749;-80
2021/11/01 00:40:00;;;;;;;103.20;76.00;;;;;;;2.61;87.64;98349.94;112354;1193;61153;-79
2021/11/01 00:42:28;;;;;;;109.30;78.40;;;;;;;2.62;87.66;98348.16;112542;1193;63924;-79
2021/11/01 00:44:55;;;;;;;106.10;77.10;;;;;;;2.61;87.62;98347.68;112493;1193;60981;-78
2021/11/01 00:47:21;;;;;;;98.10;73.30;;;;;;;2.60;87.68;98350.33;112323;1177;61026;-78
2021/11/01 00:49:50;;;;;;;86.50;63.70;;;;;;;2.62;87.83;98347.09;112520;1192;64668;-79
2021/11/01 00:52:22;;;;;;;76.10;52.80;;;;;;;2.74;87.93;98340.41;112570;1193;60966;-77
2021/11/01 00:54:50;;;;;;;75.80;51.90;;;;;;;2.90;87.91;98339.67;112524;1192;63985;-78
2021/11/01 00:57:17;;;;;;;79.30;54.90;;;;;;;3.01;87.85;98338.10;112511;1193;61052;-79
2021/11/01 00:59:43;;;;;;;69.70;49.50;;;;;;;3.08;87.63;98331.11;112550;1192;61059;-77
2021/11/01 01:02:11;;;;;;;71.50;51.70;;;;;;;3.15;87.44;98324.29;112459;1193;66094;-78
2021/11/01 01:04:39;;;;;;;71.90;51.40;;;;;;;3.21;87.31;98325.25;112505;1193;61096;-77
2021/11/01 01:07:06;;;;;;;68.70;47.40;;;;;;;3.23;87.08;98326.71;112505;1191;62360;-79
2021/11/01 01:09:33;;;;;;;64.50;45.50;;;;;;;3.26;86.96;98322.38;112518;1192;61055;-79
2021/11/01 01:12:01;;;;;;;68.80;45.40;;;;;;;3.28;86.85;98317.84;112402;1192;61077;-78
2021/11/01 01:14:30;;;;;;;64.60;45.40;;;;;;;3.31;86.73;98315.61;112555;1192;67341;-76
2021/11/01 01:17:00;;;;;;;66.60;47.20;;;;;;;3.32;86.73;98313.29;112355;1192;61049;-79
2021/11/01 01:19:34;;;;;;;72.20;48.50;;;;;;;3.29;86.64;98310.42;112566;1192;64110;-77
2021/11/01 01:22:13;;;;;;;71.80;47.00;;;;;;;3.27;86.76;98308.42;112501;1193;61093;-77
2021/11/01 01:24:40;;;;;;;69.40;48.00;;;;;;;3.26;86.65;98308.99;112550;1192;60988;-77
2021/11/01 01:27:07;;;;;;;71.00;49.20;;;;;;;3.27;86.74;98307.77;112406;1192;64903;-77
2021/11/01 01:29:34;;;;;;;79.00;56.10;;;;;;;3.28;86.84;98305.94;112529;1191;60991;-78
2021/11/01 01:32:01;;;;;;;76.20;54.20;;;;;;;3.30;86.80;98301.64;112518;1192;64967;-77
2021/11/01 01:34:27;;;;;;;72.40;55.00;;;;;;;3.34;86.88;98300.23;112495;1193;61013;-78
2021/11/01 01:36:54;;;;;;;71.80;55.90;;;;;;;3.33;86.91;98298.84;112500;1192;60966;-77
2021/11/01 01:39:20;;;;;;;73.00;56.00;;;;;;;3.31;86.89;98295.27;112320;1193;66040;-77
2021/11/01 01:41:47;;;;;;;67.30;49.00;;;;;;;3.29;86.76;98294.30;112546;1193;61171;-78
2021/11/01 01:44:15;;;;;;;65.40;49.50;;;;;;;3.30;86.86;98292.48;112339;1192;62666;-78
2021/11/01 01:46:43;;;;;;;62.90;46.20;;;;;;;3.34;86.71;98291.98;112372;1192;61050;-77
2021/11/01 01:49:09;;;;;;;63.50;45.80;;;;;;;3.33;86.69;98285.01;112370;1192;61100;-77
2021/11/01 01:51:36;;;;;;;66.10;48.70;;;;;;;3.35;86.69;98286.13;112598;1193;66153;-77
2021/11/01 01:54:03;;;;;;;73.50;49.80;;;;;;;3.37;86.74;98283.05;112528;1193;61061;-78
2021/11/01 01:56:30;;;;;;;72.60;51.90;;;;;;;3.36;86.77;98283.79;112553;1193;64016;-78
2021/11/01 01:59:04;;;;;;;67.70;48.50;;;;;;;3.35;86.77;98276.48;112379;1193;61043;-78
2021/11/01 02:01:32;;;;;;;72.20;52.40;;;;;;;3.34;86.97;98277.55;112369;1192;61007;-79
2021/11/01 02:03:59;;;;;;;66.60;48.60;;;;;;;3.33;87.11;98278.13;112509;1193;66119;-79
2021/11/01 02:06:40;;;;;;;67.10;50.20;;;;;;;3.34;87.44;98280.20;112575;1193;61052;-80
2021/11/01 02:09:35;;;;;;;65.00;49.10;;;;;;;3.37;87.14;98273.91;112503;1193;63980;-78
2021/11/01 02:12:05;;;;;;;62.10;45.80;;;;;;;3.37;86.86;98270.06;112454;1192;61039;-80
2021/11/01 02:14:44;;;;;;;58.80;39.10;;;;;;;3.36;86.94;98266.23;112615;1192;60978;-77
2021/11/01 02:17:19;;;;;;;52.70;38.30;;;;;;;3.48;87.14;98266.30;112514;1192;65978;-79
2021/11/01 02:19:48;;;;;;;54.60;38.90;;;;;;;3.63;86.92;98265.77;112601;1192;61048;-79
2021/11/01 02:22:34;;;;;;;57.20;42.90;;;;;;;3.67;86.69;98266.60;112555;1193;62774;-78
2021/11/01 02:25:08;;;;;;;61.20;43.80;;;;;;;3.66;86.69;98265.78;112603;1193;61026;-79
2021/11/01 02:27:38;;;;;;;65.60;46.80;;;;;;;3.64;86.72;98267.64;112487;1193;60975;-78
2021/11/01 02:30:07;;;;;;;59.00;42.30;;;;;;;3.59;86.81;98265.81;112574;1192;66975;-78
2021/11/01 02:32:41;;;;;;;70.80;50.30;;;;;;;3.54;86.85;98262.91;112635;1193;61619;-78
2021/11/01 02:35:10;;;;;;;67.50;50.70;;;;;;;3.48;86.86;98262.45;112409;1193;62675;-79
2021/11/01 02:37:40;;;;;;;69.30;51.90;;;;;;;3.41;86.94;98261.23;112542;1192;61010;-79
2021/11/01 02:40:09;;;;;;;63.40;48.10;;;;;;;3.37;87.03;98257.58;112516;1192;61045;-78
2021/11/01 02:42:37;;;;;;;70.20;50.40;;;;;;;3.36;87.12;98258.69;112573;1193;66038;-78
2021/11/01 02:45:09;;;;;;;59.20;43.50;;;;;;;3.33;87.11;98254.24;112322;1192;60975;-77
2021/11/01 02:47:36;;;;;;;59.20;44.10;;;;;;;3.30;87.05;98247.53;112601;1193;63999;-78
2021/11/01 02:50:08;;;;;;;61.80;43.80;;;;;;;3.27;87.00;98248.59;112502;1193;61135;-77
2021/11/01 02:52:35;;;;;;;61.60;45.30;;;;;;;3.23;87.09;98246.52;112396;1192;61801;-77
2021/11/01 02:55:05;;;;;;;62.10;47.40;;;;;;;3.19;87.07;98244.58;112540;1192;67001;-77
2021/11/01 02:57:32;;;;;;;;;;;;;;;3.15;87.02;98246.36;112584;1192;61047;-77
2021/11/01 03:00:00;;;;;;;65.70;48.10;;;;;;;3.08;87.02;98243.20;112502;1193;63719;-77
2021/11/01 03:02:27;;;;;;;63.00;46.30;;;;;;;3.01;87.07;98246.16;112546;1193;61429;-77
2021/11/01 03:04:53;;;;;;;63.30;47.60;;;;;;;2.97;87.21;98247.95;112546;1193;61065;-76
2021/11/01 03:07:22;;;;;;;61.90;42.50;;;;;;;2.93;87.30;98250.05;112548;1193;66941;-77
2021/11/01 03:09:51;;;;;;;54.90;37.60;;;;;;;2.94;87.54;98244.73;112582;1193;61754;-77
2021/11/01 03:12:19;;;;;;;59.60;42.70;;;;;;;3.02;87.70;98240.00;112570;1193;64970;-79
2021/11/01 03:14:51;;;;;;;64.30;50.30;;;;;;;3.04;87.31;98241.63;112298;1193;61078;-78
2021/11/01 03:17:21;;;;;;;63.10;45.30;;;;;;;3.00;87.07;98242.70;112551;1192;60942;-78
2021/11/01 03:19:53;;;;;;;60.80;43.70;;;;;;;2.92;87.24;98242.23;112587;1191;65938;-77
2021/11/01 03:22:22;;;;;;;68.20;48.60;;;;;;;2.83;87.57;98245.64;112494;1193;61000;-79
2021/11/01 03:24:56;;;;;;;71.80;52.80;;;;;;;2.75;87.89;98242.12;112484;1192;63994;-78
2021/11/01 03:27:24;;;;;;;68.70;49.90;;;;;;;2.70;88.17;98239.41;112431;1192;60972;-79
2021/11/01 03:29:52;;;;;;;61.40;45.00;;;;;;;2.71;88.17;98235.15;112520;1192;61055;-78
2021/11/01 03:32:20;;;;;;;56.50;41.50;;;;;;;2.71;88.10;98235.67;112513;1192;64950;-79
2021/11/01 03:34:47;;;;;;;56.70;39.40;;;;;;;2.70;88.19;98233.08;112487;1192;60991;-78
2021/11/01 03:37:16;;;;;;;51.00;35.30;;;;;;;2.72;88.16;98232.11;112506;1192;65021;-77
2021/11/01 03:39:45;;;;;;;52.50;34.60;;;;;;;2.81;88.10;98227.82;112374;1192;61021;-77
2021/11/01 03:42:14;;;;;;;48.00;33.60;;;;;;;2.92;87.98;98219.94;112614;1192;61035;-77
2021/11/01 03:44:50;;;;;;;48.00;33.50;;;;;;;3.01;87.88;98222.48;112553;1192;65947;-78
2021/11/01 03:47:18;;;;;;;50.10;34.60;;;;;;;3.10;87.71;98216.61;112493;1193;60937;-78
2021/11/01 03:49:55;;;;;;;48.50;33.80;;;;;;;3.15;87.61;98210.20;112551;1192;63999;-77
2021/11/01 03:52:23;;;;;;;50.10;35.10;;;;;;;3.19;87.43;98217.39;112499;1192;60999;-77
2021/11/01 03:54:51;;;;;;;51.10;35.80;;;;;;;3.20;87.26;98218.73;112356;1193;61142;-77
2021/11/01 03:57:20;;;;;;;50.70;35.60;;;;;;;3.19;87.26;98215.31;112336;1192;75666;-78
2021/11/01 03:59:48;;;;;;;56.10;39.90;;;;;;;3.15;87.20;98210.58;112596;1192;60901;-78
2021/11/01 04:02:19;;;;;;;53.90;35.80;;;;;;;3.08;87.03;98207.04;112600;1192;62658;-78
2021/11/01 04:04:48;;;;;;;56.00;43.20;;;;;;;3.01;87.09;98200.73;112214;1192;60982;-78
2021/11/01 04:07:15;;;;;;;54.30;41.50;;;;;;;2.95;87.19;98194.67;112326;1192;60204;-77
2021/11/01 04:09:43;;;;;;;56.20;40.00;;;;;;;2.90;87.18;98191.25;112594;1192;66011;-78
2021/11/01 04:12:11;;;;;;;48.80;35.40;;;;;;;2.86;87.22;98189.16;112352;1192;61012;-77
2021/11/01 04:14:43;;;;;;;49.10;34.50;;;;;;;2.83;87.36;98183.52;112499;1191;63998;-79
2021/11/01 04:22:32;;;;;;;54.20;40.20;;;;;;;2.78;87.60;98174.66;112366;1192;74670;-77
2021/11/01 04:25:00;;;;;;;56.60;38.40;;;;;;;2.75;87.74;98178.66;112504;1192;60931;-79
2021/11/01 04:27:26;;;;;;;55.60;38.50;;;;;;;2.76;87.90;98179.83;112572;1193;63926;-79
2021/11/01 04:29:53;;;;;;;52.60;36.40;;;;;;;2.81;87.90;98176.77;112324;1193;61013;-79
2021/11/01 04:37:38;;;;;;;42.50;28.60;;;;;;;3.11;87.90;98159.36;112370;1193;61093;-79
2021/11/01 04:53:40;;;;;;;51.50;36.90;;;;;;;3.38;87.22;98156.54;112496;1192;62942;-78
2021/11/01 04:56:07;;;;;;;54.50;37.70;;;;;;;3.38;87.19;98151.82;112529;1193;60953;-79
2021/11/01 04:58:35;;;;;;;51.90;35.20;;;;;;;3.36;87.11;98144.73;112508;1192;61061;-79
2021/11/01 05:01:02;;;;;;;48.50;35.10;;;;;;;3.33;87.04;98144.70;112535;1191;66035;-78
2021/11/01 05:03:41;;;;;;;54.50;36.60;;;;;;;3.31;87.05;98144.81;112512;1192;61039;-78
2021/11/01 05:06:09;;;;;;;49.10;35.40;;;;;;;3.30;87.04;98146.45;112535;1192;64131;-79
2021/11/01 05:08:44;;;;;;;52.00;36.90;;;;;;;3.29;87.05;98149.13;112498;1193;61033;-78
2021/11/01 05:11:16;;;;;;;50.90;36.60;;;;;;;3.28;87.02;98150.04;112563;1191;61084;-79
2021/11/01 05:13:43;;;;;;;50.10;34.60;;;;;;;3.27;86.98;98152.54;112559;1193;64629;-79
2021/11/01 05:16:35;;;;;;;49.10;34.70;;;;;;;3.27;87.05;98152.39;112514;1193;61036;-79
2021/11/01 05:19:16;;;;;;;45.40;34.00;;;;;;;3.23;86.86;98149.77;112521;1193;64113;-79
2021/11/01 05:24:26;;;;;;;47.80;34.70;;;;;;;3.11;86.94;98146.35;112572;1192;60955;-79
2021/11/01 05:29:20;;;;;;;52.50;37.90;;;;;;;3.04;87.07;98153.54;112608;1193;61870;-77
2021/11/01 05:31:59;;;;;;;55.70;36.40;;;;;;;3.02;87.14;98156.27;112570;1192;64035;-77
2021/11/01 05:34:26;;;;;;;56.90;39.30;;;;;;;3.00;87.16;98156.20;112331;1192;62388;-78
2021/11/01 05:36:52;;;;;;;67.00;42.70;;;;;;;3.00;87.34;98155.86;112533;1192;61010;-77
2021/11/01 05:39:19;;;;;;;56.20;39.30;;;;;;;3.02;87.47;98155.92;112279;1192;64937;-78
2021/11/01 05:41:46;;;;;;;55.10;40.10;;;;;;;3.06;87.48;98150.96;112529;1193;61016;-78
2021/11/01 05:44:12;;;;;;;53.30;38.50;;;;;;;3.12;87.54;98149.65;112446;1192;64001;-78
2021/11/01 05:46:44;;;;;;;54.10;39.20;;;;;;;3.16;87.58;98152.44;112489;1192;60981;-78
2021/11/01 05:49:11;;;;;;;53.60;38.90;;;;;;;3.18;87.57;98151.45;112472;1192;61022;-77
2021/11/01 05:51:37;;;;;;;55.60;38.80;;;;;;;3.19;87.64;98148.39;112234;1192;66998;-77
2021/11/01 05:54:10;;;;;;;54.70;39.10;;;;;;;3.22;87.51;98150.88;112534;1192;61049;-79
2021/11/01 06:14:54;;;;;;;57.20;39.00;;;;;;;3.35;87.02;98159.52;112568;1193;61074;-79
2021/11/01 06:17:21;;;;;;;51.00;37.40;;;;;;;3.38;86.99;98155.50;112348;1192;65932;-80
2021/11/01 06:19:48;;;;;;;52.40;36.90;;;;;;;3.41;86.85;98151.30;112596;1193;61046;-79
2021/11/01 06:22:14;;;;;;;49.90;34.90;;;;;;;3.45;86.86;98154.79;112532;1192;62623;-80
2021/11/01 06:24:50;;;;;;;51.10;37.50;;;;;;;3.49;86.83;98151.44;112547;1192;61034;-79
2021/11/01 06:27:19;;;;;;;49.80;36.50;;;;;;;3.53;86.87;98149.65;112582;1193;61068;-78
2021/11/01 06:29:59;;;;;;;55.90;37.60;;;;;;;3.58;86.84;98151.31;112608;1193;66012;-80
2021/11/01 06:32:44;;;;;;;55.20;37.90;;;;;;;3.63;86.75;98152.27;112534;1192;61039;-79
2021/11/01 06:40:56;;;;;;;48.80;36.00;;;;;;;3.89;86.59;98153.88;112600;1193;60972;-79
2021/11/01 06:43:57;;;;;;;46.00;34.70;;;;;;;3.98;86.49;98153.09;112500;1193;66027;-79
2021/11/01 06:54:30;;;;;;;52.20;36.10;;;;;;;4.42;86.07;98143.13;112404;1193;61049;-79
2021/11/01 07:19:11;;;;;;;36.30;29.40;;;;;;;5.66;84.39;98137.34;112306;1193;61039;-80
2021/11/01 07:38:43;;;;;;;42.70;29.60;;;;;;;6.55;82.79;98135.13;112547;1192;67037;-79
2021/11/01 09:26:54;;;;;;;24.10;19.20;;;;;;;11.27;72.98;98052.20;112515;1193;67007;-77
2021/11/01 09:42:50;;;;;;;20.80;18.20;;;;;;;11.98;71.38;98040.80;112303;1192;61123;-78
2021/11/01 09:45:21;;;;;;;19.30;16.80;;;;;;;12.12;70.92;98039.38;112351;1192;63887;-78
2021/11/01 09:47:49;;;;;;;21.70;17.30;;;;;;;12.25;70.60;98039.29;112476;1192;61046;-78
2021/11/01 09:50:18;;;;;;;24.40;18.60;;;;;;;12.38;70.46;98037.16;112273;1193;61253;-78
2021/11/01 09:52:49;;;;;;;21.10;16.60;;;;;;;12.51;69.87;98034.94;112535;1192;65040;-78
2021/11/01 10:00:52;;;;;;;19.60;16.30;;;;;;;12.90;68.91;98021.99;112229;1193;61091;-77
2021/11/01 10:03:35;;;;;;;19.10;16.60;;;;;;;13.03;68.76;98021.34;112471;1193;61061;-78
2021/11/01 10:06:03;;;;;;;22.00;17.50;;;;;;;13.14;68.31;98019.39;112545;1192;64709;-77
2021/11/01 10:08:30;;;;;;;19.80;15.90;;;;;;;13.23;67.72;98018.92;112542;1192;61042;-78
2021/11/01 10:10:59;;;;;;;19.50;15.50;;;;;;;13.31;67.24;98018.69;112512;1193;62596;-77
2021/11/01 10:13:29;;;;;;;20.50;16.40;;;;;;;13.40;66.79;98020.55;112545;1192;60953;-78
2021/11/01 10:18:49;;;;;;;18.90;16.10;;;;;;;13.63;66.16;98013.45;112485;1177;66012;-77
2021/11/01 10:21:18;;;;;;;;;;;;;;;13.74;65.37;98007.51;112584;1192;60982;-77
2021/11/01 10:23:56;;;;;;;16.30;14.40;;;;;;;13.84;64.59;98005.87;112575;1192;62630;-78
2021/11/01 10:26:29;;;;;;;17.80;15.20;;;;;;;13.96;64.71;98002.17;112548;1192;61071;-77
2021/11/01 10:29:07;;;;;;;20.60;15.40;;;;;;;14.08;64.09;98000.04;112544;1192;61088;-79
2021/11/01 10:31:44;;;;;;;18.30;14.70;;;;;;;14.18;64.12;97998.15;112625;1192;64818;-78
2021/11/01 10:34:13;;;;;;;20.50;14.90;;;;;;;14.30;63.62;97994.93;113014;1193;61027;-78
2021/11/01 10:36:43;;;;;;;17.60;14.80;;;;;;;14.43;63.32;97991.54;112611;1191;62628;-77
2021/11/01 10:39:15;;;;;;;17.10;14.10;;;;;;;14.49;63.09;97985.38;112591;1192;61067;-77
2021/11/01 10:44:55;;;;;;;17.80;13.90;;;;;;;14.65;62.69;97985.25;112575;1193;67260;-77
2021/11/01 10:47:58;;;;;;;16.80;14.50;;;;;;;14.73;62.37;97982.35;112470;1193;61045;-78
2021/11/01 11:12:31;;;;;;;5.50;4.40;;;;;;;16.05;59.50;97950.02;112554;1193;67019;-77
2021/11/01 11:15:13;;;;;;;5.00;4.50;;;;;;;16.17;59.16;97948.11;112529;1193;61052;-79
2021/11/01 11:20:43;;;;;;;5.00;4.50;;;;;;;16.32;58.36;97941.02;112603;1192;61022;-78
2021/11/01 11:28:51;;;;;;;5.20;4.70;;;;;;;16.43;58.04;97939.45;112588;1192;61055;-79
2021/11/01 11:31:29;;;;;;;4.90;4.50;;;;;;;16.48;57.81;97942.92;112535;1192;62640;-79
2021/11/01 11:40:37;;;;;;;5.10;4.60;;;;;;;16.66;57.29;97929.39;112292;1193;66138;-78
2021/11/01 11:50:43;;;;;;;5.10;4.20;;;;;;;16.78;56.59;97915.64;112392;1192;61052;-77
2021/11/01 11:53:17;;;;;;;5.00;4.50;;;;;;;16.83;56.65;97917.22;112466;1191;66076;-77
2021/11/01 11:55:57;;;;;;;4.50;3.90;;;;;;;16.86;56.76;97914.35;112494;1193;61041;-77
2021/11/01 11:58:32;;;;;;;4.60;4.20;;;;;;;16.87;56.74;97914.41;112527;1192;65041;-79
2021/11/01 12:00:58;;;;;;;4.20;3.80;;;;;;;16.87;56.80;97909.07;112546;1192;60972;-78
2021/11/01 12:03:25;;;;;;;4.30;3.90;;;;;;;16.86;56.92;97908.09;112542;1193;60984;-78
2021/11/01 12:05:54;;;;;;;4.00;3.70;;;;;;;16.86;57.10;97907.73;112527;1192;64751;-78
2021/11/01 12:08:31;;;;;;;4.50;4.10;;;;;;;16.87;57.01;97910.61;112189;1193;61053;-77
2021/11/01 12:18:58;;;;;;;4.40;4.10;;;;;;;16.97;56.11;97901.50;112808;1191;66024;-87
2021/11/01 12:21:27;;;;;;;4.40;3.50;;;;;;;17.01;56.18;97902.44;112550;1192;61668;-80
2021/11/01 12:23:54;;;;;;;4.30;3.90;;;;;;;17.04;55.86;97898.39;112768;1192;62703;-86
2021/11/01 12:26:24;;;;;;;4.30;3.90;;;;;;;17.06;55.81;97897.38;112336;1192;61019;-75
2021/11/01 12:28:57;;;;;;;3.70;3.40;;;;;;;17.07;55.84;97894.11;112609;1192;61004;-74
2021/11/01 12:31:27;;;;;;;4.40;3.60;;;;;;;17.05;55.80;97891.63;112638;1192;64672;-86
2021/11/01 12:36:51;;;;;;;4.10;3.80;;;;;;;17.00;55.79;97885.34;112617;1192;62637;-78
2021/11/01 12:40:17;;;;;;;6.10;4.70;;;;;;;16.98;55.87;97881.45;112531;1193;61071;-79
2021/11/01 12:59:12;;;;;;;5.30;4.60;;;;;;;16.75;54.86;97869.40;112428;1193;66107;-77
2021/11/01 13:01:47;;;;;;;5.40;4.90;;;;;;;16.73;54.55;97870.38;112369;1193;61033;-77
2021/11/01 13:04:33;;;;;;;5.10;4.60;;;;;;;16.71;54.64;97870.81;112496;1192;64069;-77
2021/11/01 13:07:30;;;;;;;5.30;4.80;;;;;;;16.65;54.47;97872.95;112551;1192;61092;-76
2021/11/01 13:09:57;;;;;;;5.50;5.10;;;;;;;16.63;54.43;97872.92;112467;1193;61064;-78
2021/11/01 13:12:48;;;;;;;5.00;4.60;;;;;;;16.60;54.55;97869.66;112610;1193;64682;-78
2021/11/01 13:20:21;;;;;;;5.70;5.20;;;;;;;16.50;54.74;97864.11;112537;1192;61052;-77
2021/11/01 13:22:51;;;;;;;5.40;5.00;;;;;;;16.47;54.88;97865.52;112606;1193;60953;-78
2021/11/01 13:38:53;;;;;;;4.80;4.40;;;;;;;16.24;54.65;97865.48;112481;1192;67057;-77
2021/11/01 13:41:27;;;;;;;5.20;4.70;;;;;;;16.21;54.65;97866.83;112579;1193;61039;-77
2021/11/01 13:44:19;;;;;;;5.80;5.20;;;;;;;16.17;54.62;97865.85;112505;1193;64025;-77
2021/11/01 13:46:48;;;;;;;5.10;4.60;;;;;;;16.13;54.69;97860.77;112551;1192;60981;-77
2021/11/01 13:49:17;;;;;;;5.70;4.50;;;;;;;16.12;54.58;97859.28;112590;1192;61049;-77
2021/11/01 13:51:46;;;;;;;5.40;4.70;;;;;;;16.09;54.72;97861.52;112535;1192;64704;-77
2021/11/01 13:54:40;;;;;;;7.50;5.30;;;;;;;16.05;54.67;97860.35;112508;1192;61055;-79
2021/11/01 13:57:04;;;;;;;5.40;4.90;;;;;;;15.99;54.77;97861.05;112366;1191;63998;-77
2021/11/01 13:59:45;;;;;;;5.00;4.50;;;;;;;15.93;54.90;97858.64;112357;1192;61061;-78
2021/11/01 15:17:32;;;;;;;10.50;8.60;;;;;;;13.18;60.30;97877.63;112234;1192;62630;-77
2021/11/01 15:20:19;;;;;;;12.90;9.90;;;;;;;13.01;60.70;97881.00;112292;1193;61116;-76
2021/11/01 15:25:41;;;;;;;16.40;13.40;;;;;;;12.72;61.38;97883.70;112294;1193;66116;-77
2021/11/01 16:19:53;;;;;;;33.50;22.70;;;;;;;10.54;67.23;97877.27;112514;1192;66020;-76
2021/11/01 16:22:22;;;;;;;31.00;22.00;;;;;;;10.44;67.57;97871.45;112483;1193;61046;-77
2021/11/01 16:24:49;;;;;;;23.70;18.90;;;;;;;10.35;67.89;97869.86;112524;1192;62663;-76
2021/11/01 16:27:19;;;;;;;19.50;15.40;;;;;;;10.26;68.09;97872.16;112266;1192;61164;-77
2021/11/01 16:32:22;;;;;;;24.10;17.40;;;;;;;10.05;68.64;97877.48;112520;1193;65971;-78
2021/11/01 16:34:59;;;;;;;27.70;20.30;;;;;;;9.92;68.82;97876.80;112493;1192;61017;-78
2021/11/01 16:39:59;;;;;;;37.10;24.90;;;;;;;9.75;69.84;97871.59;112529;1192;61086;-78
2021/11/01 16:42:46;;;;;;;47.90;33.20;;;;;;;9.70;69.92;97867.73;112500;1192;61014;-77
2021/11/01 16:47:50;;;;;;;58.50;39.90;;;;;;;9.60;70.44;97865.52;112496;1177;61081;-78
2021/11/01 16:50:18;;;;;;;41.00;29.60;;;;;;;9.54;70.65;97871.69;112502;1193;63789;-78
2021/11/01 16:52:47;;;;;;;41.10;29.00;;;;;;;9.47;70.63;97876.00;112501;1192;61019;-78
2021/11/01 16:55:20;;;;;;;42.00;27.50;;;;;;;9.36;70.81;97874.02;112455;1193;60931;-78
2021/11/01 16:57:55;;;;;;;50.70;32.60;;;;;;;9.25;71.05;97870.08;112505;1191;67029;-78
2021/11/01 17:24:44;;;;;;;84.90;50.10;;;;;;;8.47;73.77;97893.05;112473;1193;66022;-79
2021/11/01 17:27:30;;;;;;;81.40;49.90;;;;;;;8.45;73.96;97893.17;112539;1193;61148;-77
2021/11/01 17:35:46;;;;;;;152.90;83.20;;;;;;;8.40;74.84;97893.34;112523;1192;61029;-79
2021/11/01 18:36:54;;;;;;;116.20;79.50;;;;;;;8.47;78.23;97863.09;112501;1192;60995;-77
2021/11/01 18:39:29;;;;;;;120.80;82.40;;;;;;;8.50;78.36;97868.19;112478;1193;63876;-77
2021/11/01 18:42:01;;;;;;;134.40;94.70;;;;;;;8.53;78.56;97863.85;112548;1191;60998;-76
2021/11/01 18:44:38;;;;;;;145.30;97.80;;;;;;;8.58;78.71;97860.61;112579;1192;60969;-76
2021/11/01 18:52:47;;;;;;;116.40;82.10;;;;;;;8.71;78.89;97853.79;112490;1193;64004;-78
2021/11/01 18:55:13;;;;;;;115.20;86.00;;;;;;;8.75;79.04;97859.70;112486;1191;61047;-78
2021/11/01 18:57:45;;;;;;;117.10;86.10;;;;;;;8.76;79.09;97858.20;112499;1192;61723;-77
2021/11/01 19:00:12;;;;;;;105.20;76.00;;;;;;;8.74;79.20;97858.89;112335;1192;66025;-77
2021/11/01 19:02:46;;;;;;;111.40;77.80;;;;;;;8.69;79.21;97857.70;112473;1192;61053;-76
2021/11/01 19:07:57;;;;;;;104.10;74.00;;;;;;;8.59;79.16;97857.80;112501;1193;61065;-77
2021/11/01 20:05:26;;;;;;;108.80;74.40;;;;;;;8.00;81.84;97840.82;112485;1193;61008;-78
2021/11/01 21:26:14;;;;;;;68.90;40.90;;;;;;;9.48;79.60;97814.18;112458;1193;61144;-79
2021/11/01 21:28:41;;;;;;;67.30;41.10;;;;;;;9.50;79.55;97809.48;112283;1193;60974;-78
2021/11/01 21:31:08;;;;;;;71.90;41.80;;;;;;;9.52;79.54;97805.75;112346;1193;65893;-78
2021/11/01 21:33:36;;;;;;;63.90;42.10;;;;;;;9.52;79.57;97809.80;112521;1192;60982;-77
2021/11/01 21:36:06;;;;;;;62.70;38.80;;;;;;;9.51;79.66;97811.33;112312;1193;63859;-77
2021/11/01 21:38:33;;;;;;;;;;;;;;;9.49;79.79;97810.02;112322;1193;61043;-77
2021/11/01 21:40:59;;;;;;;76.70;50.70;;;;;;;9.45;80.02;97805.25;112368;1193;61049;-77
2021/11/01 21:43:26;;;;;;;72.40;49.80;;;;;;;9.40;79.98;97801.39;112535;1193;64958;-77
2021/11/01 21:45:53;;;;;;;73.60;51.20;;;;;;;9.36;79.91;97801.67;112369;1192;60972;-77
2021/11/01 21:48:19;;;;;;;67.90;49.10;;;;;;;9.35;79.83;97795.80;112330;1192;63995;-78
2021/11/01 21:50:47;;;;;;;76.10;51.80;;;;;;;9.33;79.81;97791.89;112260;1193;61071;-79
2021/11/01 21:53:15;;;;;;;68.60;49.40;;;;;;;9.31;79.77;97792.71;112370;1193;61043;-77
2021/11/01 21:55:42;;;;;;;68.20;49.60;;;;;;;9.30;79.84;97791.58;112322;1193;64746;-78
2021/11/01 21:58:33;;;;;;;67.60;48.50;;;;;;;9.27;79.77;97788.25;112296;1193;61056;-78
2021/11/01 22:20:25;;;;;;;67.10;49.90;;;;;;;9.03;80.12;97765.76;111917;1192;61114;-79
2021/11/01 22:23:00;;;;;;;74.20;51.20;;;;;;;9.02;80.08;97767.56;112438;1192;66016;-78
2021/11/01 22:41:47;;;;;;;76.80;52.80;;;;;;;9.00;80.39;97744.52;112468;1193;62622;-77
2021/11/01 22:57:45;;;;;;;72.10;52.20;;;;;;;9.08;80.43;97730.24;112489;1192;61068;-77
2021/11/01 23:00:19;;;;;;;71.60;50.30;;;;;;;9.08;80.46;97722.98;112308;1193;60940;-77
2021/11/01 23:02:50;;;;;;;74.90;50.20;;;;;;;9.08;80.38;97720.67;112515;1193;66999;-79
2021/11/01 23:32:52;;;;;;;64.80;42.80;;;;;;;9.05;80.21;97698.08;112444;1193;60982;-76
2021/11/01 23:35:19;;;;;;;62.10;43.50;;;;;;;9.05;80.25;97695.95;112285;1192;64334;-76
2021/11/01 23:37:46;;;;;;;62.40;43.50;;;;;;;9.06;80.27;97690.54;112302;1193;61039;-76
2021/11/01 23:40:13;;;;;;;57.30;41.40;;;;;;;9.07;80.16;97692.75;112364;1192;61090;-76
2021/11/01 23:42:39;;;;;;;58.10;38.90;;;;;;;9.08;80.20;97693.73;112283;1193;64658;-77
2021/11/01 23:45:06;;;;;;;51.30;37.90;;;;;;;9.09;80.17;97694.92;112268;1193;60998;-75
2021/11/01 23:47:33;;;;;;;52.60;38.00;;;;;;;9.10;80.18;97684.55;112291;1193;64014;-76
2021/11/01 23:50:00;;;;;;;49.30;35.20;;;;;;;9.12;80.02;97683.54;112275;1192;60985;-76
2021/11/01 23:52:26;;;;;;;50.00;34.80;;;;;;;9.13;80.00;97685.20;112313;1193;61043;-77
2021/11/01 23:54:53;;;;;;;48.00;34.50;;;;;;;9.14;79.97;97684.77;112138;1193;66165;-76
2021/11/01 23:57:20;;;;;;;45.80;34.80;;;;;;;9.15;79.98;97683.95;112306;1192;61018;-76
2021/11/01 23:59:48;;;;;;;48.70;32.70;;;;;;;9.17;79.87;97685.94;112249;1193;62656;-76
